createdAt,value
2023-03-15T00:04:37.334Z,99.90
2023-03-15T00:09:54.376Z,99.90
2023-03-15T00:15:14.514Z,99.90
2023-03-15T00:20:31.148Z,99.90
2023-03-15T00:25:48.653Z,99.90
2023-03-15T00:31:17.267Z,99.90
2023-03-15T00:36:33.305Z,99.90
2023-03-15T00:41:49.267Z,99.90
2023-03-15T00:47:05.278Z,99.90
2023-03-15T00:52:22.366Z,99.90
2023-03-15T00:57:38.033Z,99.90
2023-03-15T01:02:55.219Z,99.90
2023-03-15T01:08:10.904Z,99.90
2023-03-15T01:13:26.923Z,99.90
2023-03-15T01:18:43.630Z,99.90
2023-03-15T01:23:59.546Z,99.90
2023-03-15T01:29:18.027Z,99.90
2023-03-15T01:34:34.203Z,99.90
2023-03-15T01:39:49.847Z,99.90
2023-03-15T01:45:44.380Z,99.90
2023-03-15T01:51:04.759Z,99.90
2023-03-15T01:56:22.774Z,99.90
2023-03-15T02:01:45.936Z,99.90
2023-03-15T02:07:03.851Z,99.90
2023-03-15T02:12:20.267Z,99.90
2023-03-15T02:17:45.305Z,99.90
2023-03-15T02:23:02.861Z,99.90
2023-03-15T02:28:20.280Z,99.90
2023-03-15T02:33:44.671Z,99.90
2023-03-15T02:39:01.567Z,99.90
2023-03-15T02:44:43.242Z,99.90
2023-03-15T02:49:58.944Z,99.90
2023-03-15T02:55:14.429Z,99.90
2023-03-15T03:00:31.013Z,99.90
2023-03-15T03:05:47.046Z,99.90
2023-03-15T03:11:03.313Z,99.90
2023-03-15T03:16:19.084Z,99.90
2023-03-15T03:21:34.913Z,99.90
2023-03-15T03:26:50.824Z,99.90
2023-03-15T03:32:06.953Z,99.90
2023-03-15T03:37:22.895Z,99.90
2023-03-15T03:42:38.341Z,99.90
2023-03-15T03:47:54.156Z,99.90
2023-03-15T03:53:09.625Z,99.90
2023-03-15T03:58:25.766Z,99.90
2023-03-15T04:03:41.700Z,99.90
2023-03-15T04:08:58.151Z,99.90
2023-03-15T04:14:15.220Z,99.90
2023-03-15T04:19:31.490Z,99.90
2023-03-15T04:24:50.827Z,99.90
2023-03-15T04:30:07.133Z,99.90
2023-03-15T04:35:22.993Z,99.90
2023-03-15T04:40:38.762Z,99.90
2023-03-15T04:45:54.801Z,99.90
2023-03-15T04:51:10.630Z,99.90
2023-03-15T04:56:26.328Z,99.90
2023-03-15T05:01:42.006Z,99.90
2023-03-15T05:06:57.876Z,99.90
2023-03-15T05:12:14.172Z,99.90
2023-03-15T05:17:29.921Z,99.90
2023-03-15T05:22:45.294Z,99.90
2023-03-15T05:28:04.766Z,99.90
2023-03-15T05:33:22.069Z,99.90
2023-03-15T05:38:37.734Z,99.90
2023-03-15T05:43:53.692Z,99.90
2023-03-15T05:49:09.947Z,99.90
2023-03-15T05:54:25.676Z,99.90
2023-03-15T05:59:42.321Z,99.90
2023-03-15T06:04:58.413Z,99.90
2023-03-15T06:10:14.353Z,99.90
2023-03-15T06:15:30.094Z,99.90
2023-03-15T06:20:46.236Z,99.90
2023-03-15T06:26:01.849Z,99.90
2023-03-15T06:31:17.950Z,99.90
2023-03-15T06:36:33.942Z,99.90
2023-03-15T06:41:49.937Z,99.90
2023-03-15T06:47:05.837Z,99.90
2023-03-15T06:52:21.857Z,99.90
2023-03-15T06:57:37.788Z,99.90
2023-03-15T07:02:53.710Z,99.90
2023-03-15T07:08:09.432Z,99.90
2023-03-15T07:13:25.227Z,99.90
2023-03-15T07:18:41.172Z,99.90
2023-03-15T07:23:56.923Z,99.90
2023-03-15T07:29:12.525Z,99.90
2023-03-15T07:34:28.138Z,99.90
2023-03-15T07:39:44.020Z,99.90
2023-03-15T07:45:00.036Z,99.90
2023-03-15T07:50:17.860Z,99.90
2023-03-15T07:55:37.281Z,99.90
2023-03-15T08:00:56.623Z,99.90
2023-03-15T08:06:12.472Z,99.90
2023-03-15T08:11:28.343Z,99.90
2023-03-15T08:16:44.454Z,99.90
2023-03-15T08:22:00.307Z,99.90
2023-03-15T08:27:16.754Z,99.90
2023-03-15T08:32:32.563Z,99.90
2023-03-15T08:37:48.237Z,99.90
2023-03-15T08:43:04.100Z,99.90
2023-03-15T08:48:19.906Z,99.90
2023-03-15T08:53:35.862Z,99.90
2023-03-15T08:58:51.840Z,99.90
2023-03-15T09:04:07.817Z,99.90
2023-03-15T09:09:23.976Z,99.90
2023-03-15T09:14:39.530Z,99.90
2023-03-15T09:19:54.785Z,99.90
2023-03-15T09:25:11.105Z,99.90
2023-03-15T09:30:26.963Z,99.90
2023-03-15T09:35:42.743Z,99.90
2023-03-15T09:41:03.913Z,99.90
2023-03-15T09:46:31.233Z,99.90
2023-03-15T09:52:19.451Z,98.00
2023-03-15T09:57:43.626Z,98.10
2023-03-15T10:03:03.937Z,99.10
2023-03-15T10:08:20.062Z,97.60
2023-03-15T10:13:39.073Z,96.50
2023-03-15T10:19:20.975Z,93.80
2023-03-15T10:24:43.449Z,96.20
2023-03-15T10:29:59.949Z,95.30
2023-03-15T10:35:18.161Z,94.80
2023-03-15T10:40:46.014Z,96.20
2023-03-15T10:46:01.606Z,94.20
2023-03-15T10:51:26.020Z,95.10
2023-03-15T10:56:49.635Z,91.30
2023-03-15T11:02:26.070Z,92.20
2023-03-15T11:07:58.939Z,94.10
2023-03-15T11:13:23.576Z,91.30
2023-03-15T11:19:01.800Z,92.40
2023-03-15T11:24:28.426Z,92.30
2023-03-15T11:29:49.173Z,85.40
2023-03-15T11:35:08.151Z,89.90
2023-03-15T11:40:38.371Z,88.70
2023-03-15T11:46:04.858Z,89.60
2023-03-15T11:51:20.859Z,89.50
2023-03-15T11:56:51.474Z,86.40
2023-03-15T12:02:10.203Z,89.40
2023-03-15T12:07:38.572Z,87.50
2023-03-15T12:13:00.243Z,84.30
2023-03-15T12:18:20.221Z,84.10
2023-03-15T12:23:47.057Z,83.50
2023-03-15T12:29:09.066Z,83.40
2023-03-15T12:34:47.573Z,87.70
2023-03-15T12:40:19.140Z,83.60
2023-03-15T12:45:40.678Z,85.80
2023-03-15T12:51:01.884Z,88.20
2023-03-15T12:56:39.088Z,87.00
2023-03-15T13:01:57.298Z,82.90
2023-03-15T13:07:48.929Z,86.30
2023-03-15T13:13:21.464Z,82.90
2023-03-15T13:18:55.430Z,85.60
2023-03-15T13:24:19.884Z,81.50
2023-03-15T13:29:35.954Z,82.40
2023-03-15T13:34:51.862Z,79.60
2023-03-15T13:40:13.802Z,78.00
2023-03-15T13:45:29.552Z,79.80
2023-03-15T13:50:50.154Z,74.20
2023-03-15T13:56:10.018Z,74.80
2023-03-15T14:01:27.129Z,72.00
2023-03-15T14:06:46.014Z,74.60
2023-03-15T14:12:04.885Z,70.70
2023-03-15T14:17:29.709Z,70.20
2023-03-15T14:22:45.587Z,71.40
2023-03-15T14:28:02.838Z,70.30
2023-03-15T14:33:33.546Z,67.20
2023-03-15T14:38:55.192Z,70.90
2023-03-15T14:44:10.939Z,70.40
2023-03-15T14:49:28.712Z,72.40
2023-03-15T14:54:50.003Z,70.40
2023-03-15T15:00:09.533Z,72.20
2023-03-15T15:05:27.571Z,68.30
2023-03-15T15:10:45.474Z,68.70
2023-03-15T15:16:02.093Z,72.20
2023-03-15T15:21:26.205Z,67.30
2023-03-15T15:26:43.635Z,72.40
2023-03-15T15:31:59.334Z,71.80
2023-03-15T15:37:15.786Z,71.80
2023-03-15T15:42:31.390Z,74.10
2023-03-15T15:47:47.802Z,76.40
2023-03-15T15:53:06.444Z,74.30
2023-03-15T15:58:22.969Z,76.40
2023-03-15T16:03:38.492Z,79.10
2023-03-15T16:08:55.455Z,77.70
2023-03-15T16:14:16.237Z,77.20
2023-03-15T16:19:31.725Z,79.50
2023-03-15T16:24:51.112Z,80.30
2023-03-15T16:30:07.757Z,79.50
2023-03-15T16:35:30.462Z,78.30
2023-03-15T16:40:46.643Z,78.70
2023-03-15T16:46:02.388Z,79.20
2023-03-15T16:51:18.386Z,80.10
2023-03-15T16:56:36.620Z,79.00
2023-03-15T17:01:52.450Z,81.10
2023-03-15T17:07:11.210Z,81.00
2023-03-15T17:12:29.363Z,82.60
2023-03-15T17:17:45.240Z,82.50
2023-03-15T17:23:04.733Z,82.60
2023-03-15T17:28:20.873Z,84.50
2023-03-15T17:33:36.826Z,84.90
2023-03-15T17:38:53.968Z,85.10
2023-03-15T17:44:11.220Z,84.60
2023-03-15T17:49:26.622Z,84.80
2023-03-15T17:54:42.519Z,85.70
2023-03-15T17:59:58.474Z,85.90
2023-03-15T18:05:23.315Z,87.60
2023-03-15T18:10:44.390Z,89.90
2023-03-15T18:16:00.298Z,89.60
2023-03-15T18:21:22.058Z,89.30
2023-03-15T18:26:37.727Z,90.00
2023-03-15T18:31:53.238Z,88.00
2023-03-15T18:37:09.933Z,89.30
2023-03-15T18:42:25.636Z,93.10
2023-03-15T18:47:41.569Z,94.10
2023-03-15T18:52:58.224Z,96.60
2023-03-15T18:58:13.691Z,99.20
2023-03-15T19:03:29.657Z,99.40
2023-03-15T19:08:46.017Z,99.90
2023-03-15T19:14:01.937Z,99.90
2023-03-15T19:19:17.680Z,99.90
2023-03-15T19:24:33.308Z,99.90
2023-03-15T19:29:48.934Z,99.90
2023-03-15T19:35:05.141Z,99.90
2023-03-15T19:40:21.141Z,99.90
2023-03-15T19:45:36.540Z,99.90
2023-03-15T19:50:52.015Z,99.90
2023-03-15T19:56:09.850Z,99.90
2023-03-15T20:01:25.716Z,99.90
2023-03-15T20:06:41.567Z,99.90
2023-03-15T20:11:57.692Z,99.90
2023-03-15T20:17:13.358Z,99.90
2023-03-15T20:22:29.271Z,99.90
2023-03-15T20:27:45.506Z,99.90
2023-03-15T20:33:01.693Z,99.90
2023-03-15T20:38:17.481Z,99.90
2023-03-15T20:43:34.182Z,99.90
2023-03-15T20:48:50.084Z,99.90
2023-03-15T20:54:06.094Z,99.90
2023-03-15T20:59:22.802Z,99.90
2023-03-15T21:04:38.498Z,99.90
2023-03-15T21:09:54.483Z,99.90
2023-03-15T21:15:17.823Z,99.90
2023-03-15T21:20:33.785Z,99.90
2023-03-15T21:25:55.799Z,99.90
2023-03-15T21:31:12.247Z,99.90
2023-03-15T21:36:28.149Z,99.90
2023-03-15T21:41:44.479Z,99.90
2023-03-15T21:47:02.178Z,99.90
2023-03-15T21:52:18.100Z,99.90
2023-03-15T21:57:34.202Z,99.90
2023-03-15T22:02:55.632Z,99.90
2023-03-15T22:08:11.856Z,99.90
2023-03-15T22:13:27.824Z,99.90
2023-03-15T22:18:43.925Z,99.90
2023-03-15T22:24:00.113Z,99.90
2023-03-15T22:29:15.977Z,99.90
2023-03-15T22:34:34.473Z,99.90
2023-03-15T22:39:50.412Z,99.90
2023-03-15T22:45:07.359Z,99.90
2023-03-15T22:50:23.220Z,99.90
2023-03-15T22:55:39.109Z,99.90
2023-03-15T23:00:55.600Z,99.90
2023-03-15T23:06:11.308Z,99.90
2023-03-15T23:11:27.276Z,99.90
2023-03-15T23:16:43.108Z,99.90
2023-03-15T23:21:58.953Z,99.90
2023-03-15T23:27:14.424Z,99.90
2023-03-15T23:32:31.428Z,99.90
2023-03-15T23:37:48.102Z,99.90
2023-03-15T23:43:06.012Z,99.90
2023-03-15T23:48:22.319Z,99.90
2023-03-15T23:53:37.584Z,99.90
2023-03-15T23:58:54.496Z,99.90
